Time;durP1;ratioP1;P1;durP2;ratioP2;P2;SDS_P1;SDS_P2;PMS_P1;PMS_P2;Temp;Humidity;BMP_temperature;BMP_pressure;BME280_temperature;BME280_humidity;BME280_pressure;Samples;Min_cycle;Max_cycle;Signal;HPM_P1;HPM_P2
2022/07/04 00:00:45;;;;;;;;;;;;;;;-144.99;100.00;52258.53;4970861;28;20013;-62
2022/07/04 00:03:11;;;;;;;;;;;;;;;-144.99;100.00;52189.25;4974726;28;20017;-62
2022/07/04 00:05:38;;;;;;;;;;;;;;;-144.99;100.00;52240.19;4965887;28;20017;-63
2022/07/04 00:08:06;;;;;;;;;;;;;;;-144.99;100.00;52215.75;4971420;28;20009;-66
2022/07/04 00:10:33;;;;;;;;;;;;;;;-144.99;100.00;52221.84;4967069;28;20294;-66
2022/07/04 00:12:59;;;;;;;;;;;;;;;-144.99;100.00;52223.88;4965660;28;20008;-66
2022/07/04 00:15:26;;;;;;;;;;;;;;;-144.99;100.00;52258.53;4966314;28;20025;-65
2022/07/04 00:17:52;;;;;;;;;;;;;;;-144.99;100.00;52236.13;4965494;28;20005;-65
2022/07/04 00:20:19;;;;;;;;;;;;;;;-144.99;100.00;52199.44;4970549;28;20050;-66
2022/07/04 00:22:46;;;;;;;;;;;;;;;-144.99;100.00;52223.88;4965664;28;20264;-65
2022/07/04 00:25:13;;;;;;;;;;;;;;;-144.99;100.00;52227.97;4965752;28;19938;-65
2022/07/04 00:27:40;;;;;;;;;;;;;;;-144.99;100.00;52219.81;4965457;28;19973;-68
2022/07/04 00:30:07;;;;;;;;;;;;;;;-144.99;100.00;52240.19;4967621;28;20387;-61
2022/07/04 00:32:33;;;;;;;;;;;;;;;-144.99;100.00;52187.19;4965214;28;20106;-61
2022/07/04 00:35:00;;;;;;;;;;;;;;;-144.99;100.00;52280.97;4965511;28;19933;-61
2022/07/04 00:37:27;;;;;;;;;;;;;;;-144.99;100.00;52227.97;4965644;28;20021;-61
2022/07/04 00:39:55;;;;;;;;;;;;;;;-144.99;100.00;52232.03;4965755;28;19930;-61
2022/07/04 00:42:22;;;;;;;;;;;;;;;-144.99;100.00;52225.94;4969671;28;20013;-61
2022/07/04 00:44:49;;;;;;;;;;;;;;;-144.99;100.00;52240.19;4966463;28;20025;-61
2022/07/04 00:47:15;;;;;;;;;;;;;;;-144.99;100.00;52248.34;4994396;28;20019;-61
2022/07/04 00:49:42;;;;;;;;;;;;;;;-144.99;100.00;52223.88;4965588;28;20297;-61
2022/07/04 00:52:08;;;;;;;;;;;;;;;-144.99;100.00;52240.19;4964714;28;19926;-61
2022/07/04 00:54:35;;;;;;;;;;;;;;;-144.99;100.00;52244.28;4967348;28;19926;-61
2022/07/04 00:57:02;;;;;;;;;;;;;;;-144.99;100.00;52221.84;4964678;28;20121;-61
2022/07/04 00:59:29;;;;;;;;;;;;;;;-144.99;100.00;52215.75;4623966;28;9999884;-62
2022/07/04 01:01:56;;;;;;;;;;;;;;;-144.99;100.00;52223.88;4969343;28;19930;-61
2022/07/04 01:04:22;;;;;;;;;;;;;;;-144.99;100.00;52219.81;4962893;28;19977;-61
2022/07/04 01:06:49;;;;;;;;;;;;;;;-144.99;100.00;52199.44;4964210;28;20461;-61
2022/07/04 01:09:16;;;;;;;;;;;;;;;-144.99;100.00;52276.88;4965697;28;20403;-61
2022/07/04 01:11:42;;;;;;;;;;;;;;;-144.99;100.00;52223.88;4964860;28;20022;-62
2022/07/04 01:14:09;;;;;;;;;;;;;;;-144.99;100.00;52227.97;4966294;28;19976;-60
2022/07/04 01:16:37;;;;;;;;;;;;;;;-144.99;100.00;52248.34;4968024;28;19980;-61
2022/07/04 01:19:03;;;;;;;;;;;;;;;-144.99;100.00;52236.13;4967894;28;20037;-62
2022/07/04 01:21:32;;;;;;;;;;;;;;;-144.99;100.00;52244.28;4967617;28;20005;-61
2022/07/04 01:23:59;;;;;;;;;;;;;;;-144.99;100.00;52248.34;4980237;23;19975;-64
2022/07/04 01:26:25;;;;;;;;;;;;;;;-144.99;100.00;52223.88;4976793;28;20036;-63
2022/07/04 01:28:51;;;;;;;;;;;;;;;-144.99;100.00;52207.59;4992488;28;20007;-64
2022/07/04 01:31:18;;;;;;;;;;;;;;;-144.99;100.00;52223.88;4962157;28;19968;-63
2022/07/04 01:33:44;;;;;;;;;;;;;;;-144.99;100.00;52240.19;4967337;28;20021;-65
2022/07/04 01:36:11;;;;;;;;;;;;;;;-144.99;100.00;52223.88;4964122;28;19972;-63
2022/07/04 01:38:39;;;;;;;;;;;;;;;-144.99;100.00;52244.28;4986812;28;19976;-64
2022/07/04 01:41:05;;;;;;;;;;;;;;;-144.99;100.00;52168.84;4969782;28;20456;-62
2022/07/04 01:43:32;;;;;;;;;;;;;;;-144.99;100.00;52223.88;4967467;28;20051;-63
2022/07/04 01:45:58;;;;;;;;;;;;;;;-144.99;100.00;52211.66;4968187;28;20107;-62
2022/07/04 01:48:24;;;;;;;;;;;;;;;-144.99;100.00;52248.34;5007127;28;19958;-65
2022/07/04 01:50:51;;;;;;;;;;;;;;;-144.99;100.00;52191.28;4968112;28;19926;-63
2022/07/04 01:53:17;;;;;;;;;;;;;;;-144.99;100.00;52236.13;4966122;28;20022;-64
2022/07/04 01:55:45;;;;;;;;;;;;;;;-144.99;100.00;52240.19;4968454;28;19979;-64
2022/07/04 01:58:12;;;;;;;;;;;;;;;-144.99;100.00;52230.00;4967756;28;21774;-63
2022/07/04 02:03:23;;;;;;;;;;;;;;;-144.99;100.00;52244.28;4965926;28;19946;-65
2022/07/04 02:05:49;;;;;;;;;;;;;;;-144.99;100.00;52227.97;4988287;28;19972;-63
2022/07/04 02:08:16;;;;;;;;;;;;;;;-144.99;100.00;52211.66;4965088;28;19969;-63
2022/07/04 02:10:42;;;;;;;;;;;;;;;-144.99;100.00;52207.59;4966889;28;19970;-65
2022/07/04 02:13:09;;;;;;;;;;;;;;;-144.99;100.00;52236.13;4971704;28;19937;-61
2022/07/04 02:15:36;;;;;;;;;;;;;;;-144.99;100.00;52256.50;4999605;28;20017;-61
2022/07/04 02:18:03;;;;;;;;;;;;;;;-144.99;100.00;52236.13;4971821;28;20022;-63
2022/07/04 02:20:30;;;;;;;;;;;;;;;-144.99;100.00;52219.81;4976746;28;19972;-60
2022/07/04 02:22:56;;;;;;;;;;;;;;;-144.99;100.00;52227.97;4969492;28;19926;-60
2022/07/04 02:25:23;;;;;;;;;;;;;;;-144.99;100.00;52223.88;5004009;28;20016;-60
2022/07/04 02:27:49;;;;;;;;;;;;;;;-144.99;100.00;52264.66;4970925;28;19932;-60
2022/07/04 02:30:17;;;;;;;;;;;;;;;-144.99;100.00;52248.34;4969008;28;19969;-60
2022/07/04 02:32:44;;;;;;;;;;;;;;;-144.99;100.00;52205.53;4970996;28;19926;-59
2022/07/04 02:35:11;;;;;;;;;;;;;;;-144.99;100.00;52223.88;4971229;28;19973;-60
2022/07/04 02:37:38;;;;;;;;;;;;;;;-144.99;100.00;52215.75;4978923;28;19975;-60
2022/07/04 02:40:05;;;;;;;;;;;;;;;-144.99;100.00;52252.44;4970123;28;20326;-60
2022/07/04 02:42:32;;;;;;;;;;;;;;;-144.99;100.00;52227.97;4968408;28;19933;-60
2022/07/04 02:44:59;;;;;;;;;;;;;;;-144.99;100.00;52191.28;4970936;28;20356;-60
2022/07/04 02:47:27;;;;;;;;;;;;;;;-144.99;100.00;52252.44;4985304;28;19964;-60
2022/07/04 02:49:53;;;;;;;;;;;;;;;-144.99;100.00;52252.44;4970489;28;19926;-60
2022/07/04 02:52:20;;;;;;;;;;;;;;;-144.99;100.00;52240.19;4967433;28;20012;-58
2022/07/04 02:54:48;;;;;;;;;;;;;;;-144.99;100.00;52234.09;4969970;28;19932;-59
2022/07/04 02:57:15;;;;;;;;;;;;;;;-144.99;100.00;52254.47;4969500;28;19976;-59
2022/07/04 02:59:41;;;;;;;;;;;;;;;-144.99;100.00;52248.34;4969305;28;19975;-59
2022/07/04 03:02:08;;;;;;;;;;;;;;;-144.99;100.00;52268.72;4991012;28;19926;-59
2022/07/04 03:04:35;;;;;;;;;;;;;;;-144.99;100.00;52227.97;4970141;28;20025;-60
2022/07/04 03:07:02;;;;;;;;;;;;;;;-144.99;100.00;52240.19;4986745;28;20008;-60
2022/07/04 03:09:28;;;;;;;;;;;;;;;-144.99;100.00;52264.66;4967413;28;20065;-60
2022/07/04 03:11:55;;;;;;;;;;;;;;;-144.99;100.00;52232.03;4968955;28;19944;-61
2022/07/04 03:14:21;;;;;;;;;;;;;;;-144.99;100.00;52232.03;4971237;28;19934;-62
2022/07/04 03:16:48;;;;;;;;;;;;;;;-144.99;100.00;52211.66;4967640;28;19977;-64
2022/07/04 03:19:17;;;;;;;;;;;;;;;-144.99;100.00;52232.03;4977269;28;20011;-64
2022/07/04 03:21:44;;;;;;;;;;;;;;;-144.99;100.00;52244.28;4984498;28;20012;-63
2022/07/04 03:24:11;;;;;;;;;;;;;;;-144.99;100.00;52236.13;4967525;28;19962;-62
2022/07/04 03:26:38;;;;;;;;;;;;;;;-144.99;100.00;52223.88;4970374;28;20034;-62
2022/07/04 03:29:04;;;;;;;;;;;;;;;-144.99;100.00;52187.19;4970304;28;19970;-63
2022/07/04 03:31:31;;;;;;;;;;;;;;;-144.99;100.00;52260.56;4970169;28;20020;-62
2022/07/04 03:33:57;;;;;;;;;;;;;;;-144.99;100.00;52246.31;4968231;28;20041;-60
2022/07/04 03:36:24;;;;;;;;;;;;;;;-144.99;100.00;52246.31;4970267;28;19930;-59
2022/07/04 03:38:52;;;;;;;;;;;;;;;-144.99;100.00;52276.88;4970289;28;20021;-60
2022/07/04 03:41:18;;;;;;;;;;;;;;;-144.99;100.00;52227.97;4970066;28;19926;-59
2022/07/04 03:43:44;;;;;;;;;;;;;;;-144.99;100.00;52215.75;4965680;28;20383;-63
2022/07/04 03:46:11;;;;;;;;;;;;;;;-144.99;100.00;52248.34;4964721;28;20100;-61
2022/07/04 03:48:37;;;;;;;;;;;;;;;-144.99;100.00;52223.88;5013491;28;19958;-60
2022/07/04 03:51:04;;;;;;;;;;;;;;;-144.99;100.00;52207.59;4969144;28;19933;-62
2022/07/04 03:53:30;;;;;;;;;;;;;;;-144.99;100.00;52195.34;4967592;28;20272;-60
2022/07/04 03:55:58;;;;;;;;;;;;;;;-144.99;100.00;52217.78;4971483;28;20017;-62
2022/07/04 03:58:24;;;;;;;;;;;;;;;-144.99;100.00;52238.16;4969107;28;20005;-62
2022/07/04 04:00:51;;;;;;;;;;;;;;;-144.99;100.00;52240.19;4970432;28;20313;-64
2022/07/04 04:06:00;;;;;;;;;;;;;;;-144.99;100.00;52258.53;4991899;28;19937;-62
2022/07/04 04:08:27;;;;;;;;;;;;;;;-144.99;100.00;52211.66;4962182;28;19969;-62
2022/07/04 04:10:53;;;;;;;;;;;;;;;-144.99;100.00;52248.34;4969529;28;20391;-64
2022/07/04 04:13:21;;;;;;;;;;;;;;;-144.99;100.00;52207.59;4972690;28;20351;-64
2022/07/04 04:15:47;;;;;;;;;;;;;;;-144.99;100.00;52232.03;4996686;28;20191;-66
2022/07/04 04:18:14;;;;;;;;;;;;;;;-144.99;100.00;52213.69;4964405;28;20377;-63
2022/07/04 04:20:40;;;;;;;;;;;;;;;-144.99;100.00;52248.34;4967998;28;20453;-63
2022/07/04 04:23:07;;;;;;;;;;;;;;;-144.99;100.00;52240.19;4969393;28;19969;-65
2022/07/04 04:25:33;;;;;;;;;;;;;;;-144.99;100.00;52244.28;4968569;28;20057;-65
2022/07/04 04:28:00;;;;;;;;;;;;;;;-144.99;100.00;52236.13;4976994;28;20005;-64
2022/07/04 04:30:28;;;;;;;;;;;;;;;-144.99;100.00;52189.25;4958710;28;20351;-64
2022/07/04 04:32:54;;;;;;;;;;;;;;;-144.99;100.00;52195.34;4968890;28;19987;-64
2022/07/04 04:35:21;;;;;;;;;;;;;;;-144.99;100.00;52254.47;4986977;28;19969;-65
2022/07/04 04:37:47;;;;;;;;;;;;;;;-144.99;100.00;52232.03;4985081;28;20012;-65
2022/07/04 04:40:14;;;;;;;;;;;;;;;-144.99;100.00;52219.81;4969224;28;20028;-65
2022/07/04 04:42:41;;;;;;;;;;;;;;;-144.99;100.00;52209.63;4965252;28;19988;-65
2022/07/04 04:45:07;;;;;;;;;;;;;;;-144.99;100.00;52223.88;4969855;28;20451;-63
2022/07/04 04:47:35;;;;;;;;;;;;;;;-144.99;100.00;52221.84;4969156;28;20034;-69
2022/07/04 04:50:02;;;;;;;;;;;;;;;-144.99;100.00;52232.03;4962925;28;19991;-58
2022/07/04 04:52:28;;;;;;;;;;;;;;;-144.99;100.00;52203.50;4977006;28;19926;-63
2022/07/04 04:54:55;;;;;;;;;;;;;;;-144.99;100.00;52232.03;4968579;28;20010;-64
2022/07/04 04:57:21;;;;;;;;;;;;;;;-144.99;100.00;52219.81;4969051;28;19926;-65
2022/07/04 04:59:48;;;;;;;;;;;;;;;-144.99;100.00;52236.13;4968908;28;19968;-64
2022/07/04 05:02:14;;;;;;;;;;;;;;;-144.99;100.00;52232.03;4965365;28;20371;-64
2022/07/04 05:04:42;;;;;;;;;;;;;;;-144.99;100.00;52223.88;4967442;28;19927;-66
2022/07/04 05:07:08;;;;;;;;;;;;;;;-144.99;100.00;52248.34;4965637;28;19973;-65
2022/07/04 05:09:35;;;;;;;;;;;;;;;-144.99;100.00;52207.59;4963670;28;19930;-64
2022/07/04 05:12:01;;;;;;;;;;;;;;;-144.99;100.00;52215.75;4274458;28;10000813;-64
2022/07/04 05:14:28;;;;;;;;;;;;;;;-144.99;100.00;52187.19;4969953;28;20017;-65
2022/07/04 05:16:55;;;;;;;;;;;;;;;-144.99;100.00;52211.66;4965607;28;20028;-66
2022/07/04 05:19:21;;;;;;;;;;;;;;;-144.99;100.00;52236.13;4962360;28;20020;-65
2022/07/04 05:21:49;;;;;;;;;;;;;;;-144.99;100.00;52215.75;4964891;28;19964;-64
2022/07/04 05:24:16;;;;;;;;;;;;;;;-144.99;100.00;52189.25;4963973;28;19926;-64
2022/07/04 05:26:42;;;;;;;;;;;;;;;-144.99;100.00;52203.50;4965582;28;19933;-63
2022/07/04 05:29:09;;;;;;;;;;;;;;;-144.99;100.00;52248.34;4965284;28;19969;-64
2022/07/04 05:31:35;;;;;;;;;;;;;;;-144.99;100.00;52191.28;4965578;28;20040;-65
2022/07/04 05:34:02;;;;;;;;;;;;;;;-144.99;100.00;52205.53;4963202;28;19930;-63
2022/07/04 05:36:28;;;;;;;;;;;;;;;-144.99;100.00;52207.59;4965512;28;19984;-64
2022/07/04 05:38:56;;;;;;;;;;;;;;;-144.99;100.00;52191.28;4965635;28;19965;-65
2022/07/04 05:41:23;;;;;;;;;;;;;;;-144.99;99.32;52203.50;4965377;28;19926;-64
2022/07/04 05:43:49;;;;;;;;;;;;;;;-144.99;98.58;52183.13;4964384;28;19973;-64
2022/07/04 05:46:16;;;;;;;;;;;;;;;-144.99;97.21;52203.50;4965660;28;19992;-63
2022/07/04 05:48:42;;;;;;;;;;;;;;;-144.99;96.66;52209.63;5004997;28;19956;-65
2022/07/04 05:51:09;;;;;;;;;;;;;;;-144.99;96.16;52187.19;4966788;28;19983;-64
2022/07/04 05:53:36;;;;;;;;;;;;;;;-144.99;94.27;52162.75;4962816;28;20154;-64
2022/07/04 05:56:04;;;;;;;;;;;;;;;-144.99;92.02;52201.47;4963554;28;20025;-64
2022/07/04 05:58:31;;;;;;;;;;;;;;;-144.99;92.27;52191.28;4960342;28;20024;-64
2022/07/04 06:00:57;;;;;;;;;;;;;;;-144.99;91.46;52211.66;4964392;28;20319;-64
2022/07/04 06:03:24;;;;;;;;;;;;;;;-144.99;90.58;52195.34;4964902;28;19965;-64
2022/07/04 06:05:50;;;;;;;;;;;;;;;-144.99;88.13;52203.50;4965323;28;19958;-63
2022/07/04 06:08:17;;;;;;;;;;;;;;;-144.99;88.05;52191.28;4966383;28;20492;-64
2022/07/04 06:10:43;;;;;;;;;;;;;;;-144.99;87.42;52199.44;4966887;28;19973;-64
2022/07/04 06:13:11;;;;;;;;;;;;;;;-144.99;86.51;52223.88;4965266;28;19973;-64
2022/07/04 06:15:37;;;;;;;;;;;;;;;-144.99;87.32;52207.59;4956922;28;19934;-64
2022/07/04 06:18:04;;;;;;;;;;;;;;;-144.99;87.10;52166.81;4965470;28;20309;-63
2022/07/04 06:20:30;;;;;;;;;;;;;;;-144.99;86.61;52179.06;4966463;28;19930;-63
2022/07/04 06:22:57;;;;;;;;;;;;;;;-144.99;86.72;52207.59;4964700;28;20352;-64
2022/07/04 06:25:23;;;;;;;;;;;;;;;-144.99;85.29;52248.34;4965951;28;20434;-64
2022/07/04 06:27:51;;;;;;;;;;;;;;;-144.99;86.16;52211.66;4964618;28;20035;-65
2022/07/04 06:30:19;;;;;;;;;;;;;;;-144.99;82.85;52195.34;4965696;28;19979;-65
2022/07/04 06:32:46;;;;;;;;;;;;;;;-144.99;82.60;52183.13;4964828;28;20029;-64
2022/07/04 06:37:57;;;;;;;;;;;;;;;-144.99;82.58;52199.44;4965972;28;20071;-63
2022/07/04 06:40:23;;;;;;;;;;;;;;;-144.99;81.21;52195.34;4962226;28;20002;-64
2022/07/04 06:42:50;;;;;;;;;;;;;;;-144.99;81.75;52185.16;4964181;28;19926;-64
2022/07/04 06:45:16;;;;;;;;;;;;;;;-144.99;78.91;52201.47;4965457;28;20018;-63
2022/07/04 06:47:44;;;;;;;;;;;;;;;-144.99;79.27;52203.50;4966467;28;19930;-62
2022/07/04 06:50:11;;;;;;;;;;;;;;;-144.99;79.47;52211.66;4966133;28;20342;-63
2022/07/04 06:52:38;;;;;;;;;;;;;;;-144.99;79.65;52191.28;4619698;28;10000286;-63
2022/07/04 06:55:04;;;;;;;;;;;;;;;-144.99;79.58;52199.44;4965442;28;20029;-63
2022/07/04 06:57:31;;;;;;;;;;;;;;;-144.99;78.97;52183.13;4966938;28;20460;-63
2022/07/04 06:59:57;;;;;;;;;;;;;;;-144.99;78.03;52219.81;4969835;28;20609;-63
2022/07/04 07:02:24;;;;;;;;;;;;;;;-144.99;76.61;52170.91;4968958;28;20024;-63
2022/07/04 07:04:51;;;;;;;;;;;;;;;-144.99;76.79;52185.16;4964936;28;20022;-63
2022/07/04 07:07:18;;;;;;;;;;;;;;;-144.99;76.66;52166.81;4970230;28;20013;-64
2022/07/04 07:09:44;;;;;;;;;;;;;;;-144.99;75.92;52183.13;4970256;28;19950;-63
2022/07/04 07:12:11;;;;;;;;;;;;;;;-144.99;75.45;52183.13;4969620;28;19930;-65
2022/07/04 07:14:37;;;;;;;;;;;;;;;-144.99;74.31;52162.75;4972228;28;19961;-65
2022/07/04 07:17:04;;;;;;;;;;;;;;;-144.99;74.00;52189.25;4968662;28;20435;-63
2022/07/04 07:19:31;;;;;;;;;;;;;;;-144.99;71.55;52154.59;4968676;28;19930;-63
2022/07/04 07:21:58;;;;;;;;;;;;;;;-144.99;70.14;52158.66;4964259;28;20379;-64
2022/07/04 07:24:25;;;;;;;;;;;;;;;-144.99;67.88;52138.28;4967836;28;19965;-63
2022/07/04 07:26:52;;;;;;;;;;;;;;;-144.99;66.53;52174.97;4967818;28;20278;-63
2022/07/04 07:29:18;;;;;;;;;;;;;;;-144.99;64.80;52162.75;4966445;28;19984;-63
2022/07/04 07:31:45;;;;;;;;;;;;;;;-144.99;65.00;52158.66;4967188;28;20049;-64
2022/07/04 07:34:11;;;;;;;;;;;;;;;-144.99;64.60;52126.06;4967939;28;20298;-64
2022/07/04 07:36:41;;;;;;;;;;;;;;;-144.99;65.10;52174.97;4968585;28;20025;-64
2022/07/04 07:39:09;;;;;;;;;;;;;;;-144.99;64.55;52162.75;4966865;28;19930;-64
2022/07/04 07:41:35;;;;;;;;;;;;;;;-144.99;63.83;52158.66;4967896;28;19945;-65
2022/07/04 07:44:02;;;;;;;;;;;;;;;-144.99;62.69;52170.91;4969013;28;20352;-64
2022/07/04 07:46:28;;;;;;;;;;;;;;;-144.99;62.92;52166.81;4968183;28;20013;-64
2022/07/04 07:48:55;;;;;;;;;;;;;;;-144.99;62.20;52154.59;4992751;28;19965;-63
2022/07/04 07:51:21;;;;;;;;;;;;;;;-144.99;62.40;52152.56;4966974;28;20517;-64
2022/07/04 07:53:48;;;;;;;;;;;;;;;-144.99;59.11;52130.13;4966755;28;19973;-64
2022/07/04 07:56:16;;;;;;;;;;;;;;;-144.99;58.79;52138.28;4967260;28;20018;-64
2022/07/04 07:58:42;;;;;;;;;;;;;;;-144.99;59.21;52174.97;4966383;28;20048;-65
2022/07/04 08:01:09;;;;;;;;;;;;;;;-144.99;59.79;52181.09;4965422;28;19938;-64
2022/07/04 08:06:19;;;;;;;;;;;;;;;-144.99;58.42;52177.00;4965907;28;19960;-64
2022/07/04 08:08:46;;;;;;;;;;;;;;;-144.99;58.34;52170.91;4966722;28;19969;-64
2022/07/04 08:11:12;;;;;;;;;;;;;;;-144.99;58.90;52158.66;4964208;28;19970;-64
2022/07/04 08:13:41;;;;;;;;;;;;;;;-144.99;58.63;52162.75;4985813;28;20292;-64
2022/07/04 08:16:07;;;;;;;;;;;;;;;-144.99;58.21;52187.19;4979946;28;20016;-64
2022/07/04 08:18:34;;;;;;;;;;;;;;;-144.99;58.63;52146.44;4966341;28;20416;-65
2022/07/04 08:21:01;;;;;;;;;;;;;;;-144.99;60.03;52154.59;4966938;28;20405;-64
2022/07/04 08:23:28;;;;;;;;;;;;;;;-144.99;60.18;52126.06;4966762;28;19973;-63
2022/07/04 08:25:55;;;;;;;;;;;;;;;-144.99;57.71;52156.63;4967040;28;20028;-64
2022/07/04 08:28:21;;;;;;;;;;;;;;;-144.99;56.50;52132.19;4965509;28;20047;-63
2022/07/04 08:30:49;;;;;;;;;;;;;;;-144.99;57.33;52170.91;4962581;28;19926;-66
2022/07/04 08:33:16;;;;;;;;;;;;;;;-144.99;56.40;52170.91;4966027;28;19979;-65
2022/07/04 08:35:42;;;;;;;;;;;;;;;-144.99;56.96;52195.34;4966517;28;19926;-64
2022/07/04 08:38:09;;;;;;;;;;;;;;;-144.99;55.86;52174.97;4966277;28;19934;-64
2022/07/04 08:40:36;;;;;;;;;;;;;;;-144.99;56.29;52146.44;4961183;28;20021;-63
2022/07/04 08:43:03;;;;;;;;;;;;;;;-144.99;56.48;52146.44;4964960;28;20382;-65
2022/07/04 08:45:32;;;;;;;;;;;;;;;-144.99;54.81;52113.84;4966809;28;19977;-65
2022/07/04 08:48:01;;;;;;;;;;;;;;;-144.99;53.94;52093.44;4974181;28;19941;-65
2022/07/04 08:50:30;;;;;;;;;;;;;;;-144.99;53.53;52101.59;4962481;28;19930;-64
2022/07/04 08:52:59;;;;;;;;;;;;;;;-144.99;53.80;52126.06;4966097;28;19926;-64
2022/07/04 08:58:30;;;;;;;;;;;;;;;-144.99;55.50;52146.44;4963975;28;20023;-64
2022/07/04 09:00:57;;;;;;;;;;;;;;;-144.99;55.58;52166.81;4966455;28;20033;-64
2022/07/04 09:03:25;;;;;;;;;;;;;;;-144.99;55.24;52170.91;4966057;28;19931;-64
2022/07/04 09:05:52;;;;;;;;;;;;;;;-144.99;55.67;52134.22;4966887;28;19926;-65
2022/07/04 09:08:18;;;;;;;;;;;;;;;-144.99;56.02;52117.91;4964438;28;20219;-64
2022/07/04 09:10:45;;;;;;;;;;;;;;;-144.99;55.93;52154.59;4966270;28;20382;-64
2022/07/04 09:13:14;;;;;;;;;;;;;;;-144.99;54.29;52162.75;4966586;28;19930;-65
2022/07/04 09:15:42;;;;;;;;;;;;;;;-144.99;53.42;52154.59;5012195;28;19926;-65
2022/07/04 09:18:21;;;;;;;;;;;;;;;-144.99;53.96;52162.75;4963298;28;19934;-65
2022/07/04 09:20:49;;;;;;;;;;;;;;;-144.99;54.16;52093.44;4965475;28;20394;-66
2022/07/04 09:23:18;;;;;;;;;;;;;;;-144.99;52.58;52146.44;4953632;28;20021;-65
2022/07/04 09:25:45;;;;;;;;;;;;;;;-144.99;51.30;52044.53;4966652;28;19941;-65
2022/07/04 09:28:11;;;;;;;;;;;;;;;-144.99;53.23;52073.06;4964800;28;20387;-66
2022/07/04 09:30:47;;;;;;;;;;;;;;;-144.99;50.14;52124.03;4965938;28;19936;-65
2022/07/04 09:33:17;;;;;;;;;;;;;;;-144.99;49.78;52130.13;4962913;28;20030;-64
2022/07/04 09:35:43;;;;;;;;;;;;;;;-144.99;49.00;52146.44;4963201;28;19926;-65
2022/07/04 09:38:12;;;;;;;;;;;;;;;-144.99;48.42;52121.97;4963783;28;20651;-65
2022/07/04 09:43:20;;;;;;;;;;;;;;;-144.99;49.87;52089.38;4963053;28;19938;-65
2022/07/04 09:45:53;;;;;;;;;;;;;;;-144.99;49.07;52156.63;4965856;28;20408;-65
2022/07/04 09:48:20;;;;;;;;;;;;;;;-144.99;48.15;52111.78;4996717;28;20375;-65
2022/07/04 09:50:47;;;;;;;;;;;;;;;-144.99;47.85;52115.88;4956782;28;20024;-64
2022/07/04 09:53:15;;;;;;;;;;;;;;;-144.99;47.83;52105.69;4963411;28;19930;-65
2022/07/04 09:55:41;;;;;;;;;;;;;;;-144.99;48.71;52142.38;4965960;28;19926;-64
2022/07/04 09:58:08;;;;;;;;;;;;;;;-144.99;48.90;52140.31;4959793;28;20461;-65
2022/07/04 10:00:35;;;;;;;;;;;;;;;-144.99;48.66;52124.03;4965324;28;19968;-64
2022/07/04 10:03:16;;;;;;;;;;;;;;;-144.99;47.59;52109.75;4963232;28;19930;-65
2022/07/04 10:05:44;;;;;;;;;;;;;;;-144.99;47.70;52121.97;4965073;28;20213;-64
2022/07/04 10:08:10;;;;;;;;;;;;;;;-144.99;47.34;52085.31;4965167;28;19935;-64
2022/07/04 10:10:39;;;;;;;;;;;;;;;-144.99;47.37;52113.84;4965455;28;19930;-69
2022/07/04 10:13:06;;;;;;;;;;;;;;;-144.99;46.44;52115.88;4963729;28;19930;-63
2022/07/04 10:15:34;;;;;;;;;;;;;;;-144.99;46.46;52058.81;4967021;28;19930;-65
2022/07/04 10:18:00;;;;;;;;;;;;;;;-144.99;45.92;52121.97;4965072;28;20447;-63
2022/07/04 10:20:27;;;;;;;;;;;;;;;-144.99;46.03;52060.84;4959994;28;20001;-64
2022/07/04 10:22:53;;;;;;;;;;;;;;;-144.99;44.99;52044.53;4999504;23;19929;-67
2022/07/04 10:25:20;;;;;;;;;;;;;;;-144.99;45.13;52069.00;5042081;28;19925;-67
2022/07/04 10:27:50;;;;;;;;;;;;;;;-144.99;44.42;52109.75;4697389;28;9999898;-68
2022/07/04 10:30:18;;;;;;;;;;;;;;;-144.99;44.62;52085.31;4697657;28;9999861;-68
2022/07/04 10:32:46;;;;;;;;;;;;;;;-144.99;44.22;52056.78;5041578;28;20370;-67
2022/07/04 10:35:16;;;;;;;;;;;;;;;-144.99;44.44;52064.91;5047360;28;20381;-67
2022/07/04 10:38:02;;;;;;;;;;;;;;;-144.99;44.13;52093.44;5049286;28;20388;-67
2022/07/04 10:40:43;;;;;;;;;;;;;;;-144.99;44.43;52119.94;5049807;28;20451;-67
2022/07/04 10:43:29;;;;;;;;;;;;;;;-144.99;45.35;52093.44;5046187;28;19956;-68
2022/07/04 10:45:57;;;;;;;;;;;;;;;-144.99;46.37;52134.22;5045884;28;19933;-68
2022/07/04 10:48:24;;;;;;;;;;;;;;;-144.99;45.73;52121.97;5039489;28;20316;-69
2022/07/04 10:50:59;;;;;;;;;;;;;;;-144.99;45.81;52121.97;5036134;28;19978;-68
2022/07/04 10:53:25;;;;;;;;;;;;;;;-144.99;45.71;52101.59;5035519;28;20203;-68
2022/07/04 10:55:52;;;;;;;;;;;;;;;-144.99;45.89;52121.97;5037931;28;19971;-68
2022/07/04 10:58:38;;;;;;;;;;;;;;;-144.99;45.68;52117.91;5042707;28;20019;-69
2022/07/04 11:01:13;;;;;;;;;;;;;;;-144.99;46.05;52113.84;5049060;28;19933;-69
2022/07/04 11:03:44;;;;;;;;;;;;;;;-144.99;45.47;52109.75;5041445;28;19929;-70
2022/07/04 11:06:26;;;;;;;;;;;;;;;-144.99;45.84;52079.19;5046234;28;20051;-69
2022/07/04 11:09:14;;;;;;;;;;;;;;;-144.99;45.86;52056.78;5048378;28;19929;-69
2022/07/04 11:11:50;;;;;;;;;;;;;;;-144.99;45.07;52130.13;5048675;28;20024;-68
2022/07/04 11:14:33;;;;;;;;;;;;;;;-144.99;45.44;52142.38;5046462;28;19924;-69
2022/07/04 11:17:01;;;;;;;;;;;;;;;-144.99;45.98;52154.59;5041581;28;19968;-68
2022/07/04 11:19:28;;;;;;;;;;;;;;;-144.99;47.38;52158.66;5044861;28;19931;-68
2022/07/04 11:21:55;;;;;;;;;;;;;;;-144.99;47.18;52154.59;5048433;28;19936;-68
2022/07/04 11:24:21;;;;;;;;;;;;;;;-144.99;46.51;52109.75;5041347;28;20047;-68
2022/07/04 11:26:50;;;;;;;;;;;;;;;-144.99;46.83;52146.44;5048247;28;20024;-68
2022/07/04 11:29:17;;;;;;;;;;;;;;;-144.99;46.30;52032.31;5048164;28;19983;-67
2022/07/04 11:31:45;;;;;;;;;;;;;;;-144.99;45.69;52085.31;5040939;28;20453;-68
2022/07/04 11:34:13;;;;;;;;;;;;;;;-144.99;45.59;52083.25;5040339;28;20027;-67
2022/07/04 11:36:40;;;;;;;;;;;;;;;-144.99;44.02;52101.59;5043072;28;20034;-67
2022/07/04 11:39:07;;;;;;;;;;;;;;;-144.99;44.03;52089.38;5038587;28;20023;-68
2022/07/04 11:47:09;;;;;;;;;;;;;;;-144.99;43.31;52064.91;5041198;28;19936;-67
2022/07/04 11:49:37;;;;;;;;;;;;;;;-144.99;42.25;52077.16;5047931;28;19960;-67
2022/07/04 11:52:04;;;;;;;;;;;;;;;-144.99;42.82;52034.34;5043065;28;20191;-67
2022/07/04 11:54:30;;;;;;;;;;;;;;;-144.99;42.64;52044.53;5047109;28;20023;-67
2022/07/04 11:57:10;;;;;;;;;;;;;;;-144.99;42.86;52050.66;5047130;28;19925;-68
2022/07/04 11:59:36;;;;;;;;;;;;;;;-144.99;41.80;51995.63;5046438;28;20024;-67
2022/07/04 12:02:10;;;;;;;;;;;;;;;-144.99;41.04;52071.03;5045508;28;20214;-67
2022/07/04 12:04:41;;;;;;;;;;;;;;;-144.99;41.75;52095.50;5045712;28;20352;-67
2022/07/04 12:07:09;;;;;;;;;;;;;;;-144.99;42.34;52105.69;5037720;28;20386;-68
2022/07/04 12:09:35;;;;;;;;;;;;;;;-144.99;42.26;52073.06;5047095;28;19967;-67
2022/07/04 12:12:02;;;;;;;;;;;;;;;-144.99;42.99;52105.69;5046832;28;19931;-67
2022/07/04 12:14:28;;;;;;;;;;;;;;;-144.99;43.04;52109.75;5045573;28;20323;-68
2022/07/04 12:17:12;;;;;;;;;;;;;;;-144.99;43.23;52103.66;5047245;28;19935;-67
2022/07/04 12:19:49;;;;;;;;;;;;;;;-144.99;43.41;52150.53;5047120;28;20313;-69
2022/07/04 12:22:25;;;;;;;;;;;;;;;-144.99;44.06;52117.91;5041809;28;19972;-68
2022/07/04 12:24:51;;;;;;;;;;;;;;;-144.99;44.31;52119.94;5046745;28;20398;-67
2022/07/04 12:27:18;;;;;;;;;;;;;;;-144.99;45.00;52158.66;5046545;28;20114;-68
2022/07/04 12:29:49;;;;;;;;;;;;;;;-144.99;44.80;52058.81;5043710;28;20241;-67
2022/07/04 12:32:15;;;;;;;;;;;;;;;-144.99;45.00;52119.94;5037190;28;20020;-67
2022/07/04 12:34:43;;;;;;;;;;;;;;;-144.99;44.35;52142.38;5044710;28;19925;-67
2022/07/04 12:37:10;;;;;;;;;;;;;;;-144.99;45.10;52130.13;5048540;28;19976;-67
2022/07/04 12:39:39;;;;;;;;;;;;;;;-144.99;45.17;52146.44;5045705;28;19933;-69
2022/07/04 12:42:09;;;;;;;;;;;;;;;-144.99;44.50;52138.28;5040078;28;19928;-67
2022/07/04 12:44:35;;;;;;;;;;;;;;;-144.99;44.58;52113.84;5047721;28;19948;-67
2022/07/04 12:47:03;;;;;;;;;;;;;;;-144.99;44.54;52148.47;5051215;28;19972;-68